createdAt,value
2024-01-04T00:00:16.518Z,92788.00
2024-01-04T00:02:45.154Z,92786.16
2024-01-04T00:05:13.181Z,92782.47
2024-01-04T00:07:41.233Z,92791.50
2024-01-04T00:10:09.807Z,92777.69
2024-01-04T00:12:38.016Z,92787.81
2024-01-04T00:15:07.400Z,92792.31
2024-01-04T00:17:35.410Z,92810.09
2024-01-04T00:20:04.217Z,92815.69
2024-01-04T00:22:32.589Z,92794.72
2024-01-04T00:25:00.762Z,92803.97
2024-01-04T00:27:28.874Z,92790.09
2024-01-04T00:34:53.372Z,92807.53
2024-01-04T00:37:23.164Z,92795.34
2024-01-04T00:39:51.542Z,92791.69
2024-01-04T00:42:19.535Z,92783.69
2024-01-04T00:44:47.702Z,92772.25
2024-01-04T00:47:15.569Z,92782.88
2024-01-04T00:49:43.571Z,92794.81
2024-01-04T00:52:11.731Z,92785.81
2024-01-04T00:54:39.641Z,92792.69
2024-01-04T00:57:09.630Z,92777.31
2024-01-04T00:59:37.752Z,92790.84
2024-01-04T01:02:05.985Z,92787.63
2024-01-04T01:04:34.040Z,92793.47
2024-01-04T01:07:01.908Z,92779.41
2024-01-04T01:09:29.945Z,92792.69
2024-01-04T01:11:58.142Z,92799.88
2024-01-04T01:14:26.551Z,92798.31
2024-01-04T01:16:54.427Z,92790.06
2024-01-04T01:19:22.608Z,92812.09
2024-01-04T01:21:50.618Z,92780.81
2024-01-04T01:24:18.970Z,92789.03
2024-01-04T01:26:47.105Z,92791.38
2024-01-04T01:29:15.187Z,92794.34
2024-01-04T01:31:44.129Z,92796.47
2024-01-04T01:34:12.491Z,92803.41
2024-01-04T01:36:43.581Z,92814.34
2024-01-04T01:39:12.653Z,92796.69
2024-01-04T01:41:40.816Z,92810.03
2024-01-04T01:44:08.996Z,92816.69
2024-01-04T01:46:37.388Z,92825.22
2024-01-04T01:49:05.457Z,92814.56
2024-01-04T01:51:33.535Z,92817.47
2024-01-04T01:54:02.654Z,92824.34
2024-01-04T01:56:32.416Z,92813.72
2024-01-04T02:02:51.175Z,92812.19
2024-01-04T02:05:19.291Z,92832.16
2024-01-04T02:07:47.299Z,92813.53
2024-01-04T02:10:15.322Z,92833.94
2024-01-04T02:12:44.020Z,92812.97
2024-01-04T02:15:12.173Z,92826.03
2024-01-04T02:17:41.355Z,92838.00
2024-01-04T02:20:12.632Z,92834.00
2024-01-04T02:22:45.575Z,92823.72
2024-01-04T02:25:13.521Z,92817.41
2024-01-04T02:27:41.481Z,92813.41
2024-01-04T02:30:09.844Z,92821.19
2024-01-04T02:32:38.108Z,92825.75
2024-01-04T02:35:06.684Z,92830.34
2024-01-04T02:37:34.670Z,92818.41
2024-01-04T02:40:02.812Z,92817.56
2024-01-04T02:42:32.470Z,92812.00
2024-01-04T02:45:00.769Z,92817.06
2024-01-04T02:47:28.821Z,92790.84
2024-01-04T02:49:56.697Z,92796.91
2024-01-04T02:52:24.657Z,92793.97
2024-01-04T02:54:52.569Z,92794.78
2024-01-04T02:57:20.569Z,92790.53
2024-01-04T03:03:13.709Z,92799.63
2024-01-04T03:05:41.996Z,92801.47
2024-01-04T03:08:09.887Z,92784.72
2024-01-04T03:10:37.805Z,92793.78
2024-01-04T03:13:08.178Z,92790.56
2024-01-04T03:15:36.156Z,92777.25
2024-01-04T03:18:04.450Z,92771.63
2024-01-04T03:20:32.423Z,92766.06
2024-01-04T03:23:00.498Z,92773.31
2024-01-04T03:25:28.460Z,92765.03
2024-01-04T03:27:56.336Z,92747.22
2024-01-04T03:30:24.424Z,92750.97
2024-01-04T03:32:52.712Z,92759.75
2024-01-04T03:35:20.745Z,92760.50
2024-01-04T03:37:48.669Z,92762.59
2024-01-04T03:40:16.840Z,92759.69
2024-01-04T03:42:44.813Z,92760.50
2024-01-04T03:45:12.768Z,92752.28
2024-01-04T03:47:41.369Z,92747.75
2024-01-04T03:50:09.571Z,92745.84
2024-01-04T03:52:37.532Z,92729.13
2024-01-04T03:55:05.868Z,92736.00
2024-01-04T03:57:35.733Z,92747.59
2024-01-04T04:00:04.776Z,92731.34
2024-01-04T04:02:40.085Z,92742.59
2024-01-04T04:05:08.430Z,92747.31
2024-01-04T04:07:36.458Z,92733.25
2024-01-04T04:10:04.759Z,92735.13
2024-01-04T04:12:32.770Z,92740.97
2024-01-04T04:15:02.466Z,92727.88
2024-01-04T04:17:31.771Z,92731.47
2024-01-04T04:19:59.918Z,92727.09
2024-01-04T04:22:27.841Z,92728.72
2024-01-04T04:24:55.815Z,92734.59
2024-01-04T04:27:23.730Z,92733.38
2024-01-04T04:29:51.708Z,92751.72
2024-01-04T04:32:19.910Z,92753.50
2024-01-04T04:34:48.089Z,92747.16
2024-01-04T04:37:16.286Z,92742.41
2024-01-04T04:39:46.349Z,92732.84
2024-01-04T04:42:14.501Z,92743.94
2024-01-04T04:44:42.652Z,92735.31
2024-01-04T04:47:10.744Z,92728.81
2024-01-04T04:49:38.680Z,92737.66
2024-01-04T04:52:06.886Z,92735.84
2024-01-04T04:54:37.822Z,92735.91
2024-01-04T04:57:06.662Z,92739.41
2024-01-04T04:59:34.858Z,92742.38
2024-01-04T05:02:02.996Z,92742.94
2024-01-04T05:04:30.902Z,92750.41
2024-01-04T05:06:58.976Z,92747.91
2024-01-04T05:09:27.072Z,92731.69
2024-01-04T05:11:55.311Z,92737.75
2024-01-04T05:14:23.278Z,92742.81
2024-01-04T05:16:51.600Z,92741.25
2024-01-04T05:19:19.846Z,92750.81
2024-01-04T05:21:47.883Z,92746.81
2024-01-04T05:24:15.825Z,92755.09
2024-01-04T05:26:43.903Z,92752.41
2024-01-04T05:29:11.766Z,92767.06
2024-01-04T05:31:39.709Z,92767.28
2024-01-04T05:34:07.888Z,92788.22
2024-01-04T05:36:36.116Z,92766.50
2024-01-04T05:39:04.818Z,92778.94
2024-01-04T05:41:33.193Z,92766.97
2024-01-04T05:44:01.222Z,92777.13
2024-01-04T05:46:29.280Z,92771.50
2024-01-04T05:48:57.408Z,92763.72
2024-01-04T05:51:25.552Z,92752.06
2024-01-04T05:54:10.270Z,92744.09
2024-01-04T05:56:38.944Z,92759.13
2024-01-04T05:59:07.001Z,92759.22
2024-01-04T06:01:35.374Z,92756.25
2024-01-04T06:04:03.449Z,92755.34
2024-01-04T06:06:31.608Z,92756.41
2024-01-04T06:08:59.665Z,92751.91
2024-01-04T06:11:27.728Z,92756.13
2024-01-04T06:13:56.129Z,92756.53
2024-01-04T06:16:24.206Z,92760.00
2024-01-04T06:18:53.078Z,92753.00
2024-01-04T06:21:21.295Z,92762.31
2024-01-04T06:23:49.250Z,92746.97
2024-01-04T06:26:20.709Z,92744.53
2024-01-04T06:28:51.233Z,92754.41
2024-01-04T06:31:19.300Z,92748.72
2024-01-04T06:33:47.556Z,92739.66
2024-01-04T06:36:15.683Z,92747.66
2024-01-04T06:38:43.581Z,92752.84
2024-01-04T06:41:13.432Z,92736.22
2024-01-04T06:43:41.507Z,92748.34
2024-01-04T06:46:12.014Z,92752.81
2024-01-04T06:48:41.778Z,92743.34
2024-01-04T06:51:10.049Z,92737.09
2024-01-04T06:53:38.279Z,92723.06
2024-01-04T06:56:07.343Z,92726.94
2024-01-04T06:58:35.262Z,92727.34
2024-01-04T07:01:03.154Z,92714.66
2024-01-04T07:03:31.859Z,92718.91
2024-01-04T07:06:00.018Z,92722.22
2024-01-04T07:08:28.069Z,92724.75
2024-01-04T07:10:55.915Z,92729.31
2024-01-04T07:13:23.897Z,92727.63
2024-01-04T07:15:51.822Z,92719.75
2024-01-04T07:18:19.940Z,92720.50
2024-01-04T07:20:48.230Z,92725.91
2024-01-04T07:23:16.720Z,92727.59
2024-01-04T07:25:45.281Z,92709.00
2024-01-04T07:28:13.184Z,92711.41
2024-01-04T07:30:41.689Z,92711.16
2024-01-04T07:33:10.010Z,92702.63
2024-01-04T07:35:38.674Z,92725.00
2024-01-04T07:38:06.813Z,92728.25
2024-01-04T07:40:34.859Z,92713.56
2024-01-04T07:43:02.842Z,92730.06
2024-01-04T07:45:30.890Z,92714.63
2024-01-04T07:47:58.995Z,92708.47
2024-01-04T07:50:27.920Z,92700.22
2024-01-04T07:52:56.973Z,92698.06
2024-01-04T07:55:25.062Z,92700.44
2024-01-04T07:57:53.370Z,92707.59
2024-01-04T08:00:21.664Z,92696.13
2024-01-04T08:02:49.723Z,92697.44
2024-01-04T08:05:17.987Z,92699.53
2024-01-04T08:07:45.985Z,92700.91
2024-01-04T08:10:14.071Z,92719.84
2024-01-04T08:12:42.431Z,92720.63
2024-01-04T08:15:11.406Z,92726.78
2024-01-04T08:17:39.862Z,92715.28
2024-01-04T08:20:08.873Z,92695.03
2024-01-04T08:22:36.970Z,92700.63
2024-01-04T08:25:05.842Z,92709.19
2024-01-04T08:27:33.885Z,92704.38
2024-01-04T08:30:01.963Z,92714.28
2024-01-04T08:32:30.053Z,92690.53
2024-01-04T08:34:58.071Z,92677.22
2024-01-04T08:37:26.153Z,92686.53
2024-01-04T08:39:54.497Z,92674.81
2024-01-04T08:42:22.579Z,92665.28
2024-01-04T08:44:50.613Z,92661.22
2024-01-04T08:47:18.582Z,92657.25
2024-01-04T08:49:46.620Z,92642.53
2024-01-04T08:52:14.652Z,92635.31
2024-01-04T08:54:43.853Z,92630.22
2024-01-04T08:57:11.958Z,92630.75
2024-01-04T08:59:39.995Z,92621.63
2024-01-04T09:02:10.536Z,92621.03
2024-01-04T09:04:39.412Z,92608.41
2024-01-04T09:07:08.650Z,92611.28
2024-01-04T09:09:37.039Z,92599.09
2024-01-04T09:12:05.424Z,92611.59
2024-01-04T09:14:33.882Z,92598.34
2024-01-04T09:17:02.167Z,92595.19
2024-01-04T09:19:30.310Z,92591.59
2024-01-04T09:21:58.674Z,92592.47
2024-01-04T09:24:26.788Z,92591.59
2024-01-04T09:26:54.760Z,92585.53
2024-01-04T09:29:22.850Z,92583.50
2024-01-04T09:31:50.880Z,92585.13
2024-01-04T09:34:19.152Z,92593.50
2024-01-04T09:36:47.536Z,92606.72
2024-01-04T09:39:19.592Z,92612.00
2024-01-04T09:41:49.613Z,92601.84
2024-01-04T09:44:18.019Z,92602.91
2024-01-04T09:46:46.820Z,92594.38
2024-01-04T09:49:15.666Z,92591.00
2024-01-04T09:51:44.095Z,92590.69
2024-01-04T09:54:12.941Z,92589.53
2024-01-04T09:56:47.765Z,92595.59
2024-01-04T09:59:15.954Z,92569.78
2024-01-04T10:01:44.636Z,92572.72
2024-01-04T10:04:14.601Z,92574.69
2024-01-04T10:06:45.054Z,92571.88
2024-01-04T10:09:55.349Z,92575.63
2024-01-04T10:12:24.635Z,92583.75
2024-01-04T10:14:52.736Z,92565.25
2024-01-04T10:17:21.025Z,92571.53
2024-01-04T10:19:49.069Z,92566.97
2024-01-04T10:22:23.438Z,92565.38
2024-01-04T10:24:53.121Z,92562.66
2024-01-04T10:27:21.642Z,92555.38
2024-01-04T10:29:53.106Z,92554.09
2024-01-04T10:32:21.261Z,92532.19
2024-01-04T10:34:49.245Z,92522.75
2024-01-04T10:37:23.817Z,92516.72
2024-01-04T10:39:59.601Z,92516.28
2024-01-04T10:42:28.463Z,92527.16
2024-01-04T10:44:56.721Z,92502.63
2024-01-04T10:47:25.359Z,92510.16
2024-01-04T10:49:59.437Z,92502.47
2024-01-04T10:52:35.250Z,92510.91
2024-01-04T10:55:05.379Z,92507.28
2024-01-04T10:57:35.086Z,92503.75
2024-01-04T11:00:05.110Z,92487.22
2024-01-04T11:02:35.051Z,92483.44
2024-01-04T11:05:05.228Z,92482.63
2024-01-04T11:07:35.198Z,92484.34
2024-01-04T11:10:03.318Z,92481.34
2024-01-04T11:12:32.915Z,92469.66
2024-01-04T11:15:01.147Z,92477.13
2024-01-04T11:17:54.556Z,92467.78
2024-01-04T11:20:36.966Z,92459.38
2024-01-04T11:23:22.444Z,92462.81
2024-01-04T11:26:02.401Z,92454.09
2024-01-04T11:28:39.464Z,92454.25
2024-01-04T11:31:09.105Z,92444.50
2024-01-04T11:33:44.158Z,92434.59
2024-01-04T11:36:18.001Z,92432.06
2024-01-04T11:38:47.646Z,92422.66
2024-01-04T11:41:15.692Z,92409.84
2024-01-04T11:43:48.047Z,92413.34
2024-01-04T11:46:24.069Z,92395.84
2024-01-04T11:49:03.759Z,92405.69
2024-01-04T11:51:46.577Z,92411.22
2024-01-04T11:54:17.033Z,92419.16
2024-01-04T11:56:47.045Z,92412.13
2024-01-04T11:59:19.909Z,92395.75
2024-01-04T12:01:48.345Z,92376.09
2024-01-04T12:04:17.536Z,92379.94
2024-01-04T12:06:47.464Z,92373.16
2024-01-04T12:09:19.106Z,92372.22
2024-01-04T12:11:59.040Z,92359.31
2024-01-04T12:14:27.801Z,92363.00
2024-01-04T12:16:55.735Z,92355.53
2024-01-04T12:19:23.812Z,92347.53
2024-01-04T12:21:51.960Z,92318.22
2024-01-04T12:24:21.027Z,92326.78
2024-01-04T12:26:49.938Z,92338.75
2024-01-04T12:29:18.151Z,92340.00
2024-01-04T12:31:46.502Z,92322.16
2024-01-04T12:34:14.951Z,92339.28
2024-01-04T12:36:43.340Z,92348.72
2024-01-04T12:39:15.264Z,92342.63
2024-01-04T12:41:46.763Z,92343.88
2024-01-04T12:44:15.865Z,92352.13
2024-01-04T12:46:45.685Z,92337.50
2024-01-04T12:49:17.527Z,92335.38
2024-01-04T12:51:48.184Z,92341.25
2024-01-04T12:54:16.670Z,92350.25
2024-01-04T12:56:44.821Z,92380.38
2024-01-04T12:59:14.182Z,92378.22
2024-01-04T13:01:42.228Z,92395.44
2024-01-04T13:04:10.188Z,92398.34
2024-01-04T13:06:38.567Z,92394.91
2024-01-04T13:09:07.326Z,92409.22
2024-01-04T13:11:35.482Z,92420.16
2024-01-04T13:14:04.017Z,92420.00
2024-01-04T13:16:32.297Z,92435.59
2024-01-04T13:19:00.367Z,92424.81
2024-01-04T13:21:28.624Z,92428.75
2024-01-04T13:23:57.049Z,92425.00
2024-01-04T13:26:25.267Z,92417.22
2024-01-04T13:28:53.480Z,92406.56
2024-01-04T13:31:22.145Z,92401.72
2024-01-04T13:33:50.527Z,92389.13
2024-01-04T13:36:19.488Z,92387.47
2024-01-04T13:38:47.776Z,92405.56
2024-01-04T13:41:15.850Z,92407.28
2024-01-04T13:43:44.010Z,92423.00
2024-01-04T13:46:11.990Z,92420.78
2024-01-04T13:48:40.370Z,92423.25
2024-01-04T13:51:08.799Z,92415.19
2024-01-04T13:53:36.823Z,92425.34
2024-01-04T13:56:05.205Z,92416.72
2024-01-04T13:58:33.380Z,92425.13
2024-01-04T14:01:01.373Z,92441.47
2024-01-04T14:03:29.427Z,92426.22
2024-01-04T14:05:57.652Z,92423.22
2024-01-04T14:08:26.924Z,92427.63
2024-01-04T14:10:57.368Z,92432.78
2024-01-04T14:13:25.343Z,92431.41
2024-01-04T14:15:53.282Z,92564.09
2024-01-04T14:22:56.515Z,92641.41
2024-01-04T14:25:24.780Z,92663.00
2024-01-04T14:27:52.741Z,92683.22
2024-01-04T14:30:20.993Z,92679.47
2024-01-04T14:32:49.793Z,92700.84
2024-01-04T14:35:17.963Z,92688.94
2024-01-04T14:37:46.094Z,92675.44
2024-01-04T14:40:19.692Z,92680.75
2024-01-04T14:42:48.841Z,92672.78
2024-01-04T14:45:18.022Z,92671.91
2024-01-04T14:47:47.489Z,92681.16
2024-01-04T14:50:17.245Z,92688.31
2024-01-04T14:52:45.705Z,92690.97
2024-01-04T14:55:14.316Z,92680.91
2024-01-04T14:57:43.954Z,92683.03
2024-01-04T15:00:13.985Z,92661.28
2024-01-04T15:02:42.489Z,92647.75
2024-01-04T15:05:11.305Z,92671.19
2024-01-04T15:07:40.260Z,92666.16
2024-01-04T15:10:10.717Z,92669.88
2024-01-04T15:12:41.316Z,92678.94
2024-01-04T15:15:17.045Z,92686.66
2024-01-04T15:17:52.312Z,92695.97
2024-01-04T15:20:20.856Z,92699.97
2024-01-04T15:22:49.190Z,92710.91
2024-01-04T15:25:17.764Z,92706.59
2024-01-04T15:27:46.383Z,92706.59
2024-01-04T15:44:01.763Z,92708.75
2024-01-04T15:46:30.819Z,92710.31
2024-01-04T15:48:59.692Z,92699.91
2024-01-04T15:51:28.562Z,92711.06
2024-01-04T15:54:00.333Z,92709.16
2024-01-04T15:56:32.616Z,92725.91
2024-01-04T15:59:01.729Z,92723.78
2024-01-04T16:01:30.691Z,92721.38
2024-01-04T16:04:00.072Z,92737.31
2024-01-04T16:06:28.785Z,92737.00
2024-01-04T16:08:58.019Z,92741.25
2024-01-04T16:11:26.751Z,92758.50
2024-01-04T16:13:55.670Z,92769.63
2024-01-04T16:16:24.666Z,92772.81
2024-01-04T16:18:53.951Z,92775.75
2024-01-04T16:21:22.686Z,92778.69
2024-01-04T16:23:52.170Z,92771.75
2024-01-04T16:26:21.173Z,92769.34
2024-01-04T16:28:49.929Z,92773.41
2024-01-04T16:31:18.672Z,92779.31
2024-01-04T16:33:49.084Z,92788.31
2024-01-04T16:36:18.857Z,92797.97
2024-01-04T16:38:48.278Z,92796.09
2024-01-04T16:41:16.827Z,92797.13
2024-01-04T16:43:45.482Z,92775.38
2024-01-04T16:46:14.002Z,92788.19
2024-01-04T16:48:42.986Z,92786.84
2024-01-04T16:51:14.360Z,92791.13
2024-01-04T16:53:44.150Z,92809.44
2024-01-04T16:56:13.577Z,92824.31
2024-01-04T16:58:42.256Z,92822.94
2024-01-04T17:01:11.248Z,92818.69
2024-01-04T17:04:01.767Z,92820.63
2024-01-04T17:06:31.039Z,92827.28
2024-01-04T17:09:02.436Z,92844.81
2024-01-04T17:11:30.904Z,92848.81
2024-01-04T17:13:59.431Z,92859.13
2024-01-04T17:16:27.874Z,92860.22
2024-01-04T17:18:56.749Z,92863.97
2024-01-04T17:21:25.483Z,92859.78
2024-01-04T17:23:54.248Z,92856.59
2024-01-04T17:26:23.021Z,92858.50
2024-01-04T17:28:51.636Z,92860.81
2024-01-04T17:31:21.498Z,92873.41
2024-01-04T17:33:50.222Z,92880.00
2024-01-04T17:36:25.884Z,92887.91
2024-01-04T17:39:01.462Z,92881.28
2024-01-04T17:41:32.831Z,92882.88
2024-01-04T17:44:01.000Z,92887.59
2024-01-04T17:46:29.096Z,92882.56
2024-01-04T17:48:57.991Z,92887.03
2024-01-04T17:51:26.415Z,92872.13
2024-01-04T17:53:54.554Z,92886.50
2024-01-04T17:56:23.278Z,92886.44
2024-01-04T17:58:51.286Z,92885.03
2024-01-04T18:01:23.586Z,92884.97
2024-01-04T18:03:52.266Z,92877.03
2024-01-04T18:06:21.243Z,92871.41
2024-01-04T18:08:53.336Z,92882.81
2024-01-04T18:11:23.152Z,92886.56
2024-01-04T18:13:51.789Z,92892.66
2024-01-04T18:16:20.674Z,92891.66
2024-01-04T18:18:50.289Z,92891.72
2024-01-04T18:21:20.582Z,92894.91
2024-01-04T18:23:50.240Z,92904.69
2024-01-04T18:26:19.007Z,92918.00
2024-01-04T18:28:47.803Z,92910.19
2024-01-04T18:31:16.579Z,92914.22
2024-01-04T18:33:45.804Z,92922.44
2024-01-04T18:36:15.280Z,92929.31
2024-01-04T18:38:48.002Z,92933.53
2024-01-04T18:41:24.192Z,92939.41
2024-01-04T18:43:53.194Z,92943.16
2024-01-04T18:46:21.829Z,92946.03
2024-01-04T18:48:50.529Z,92968.06
2024-01-04T18:51:20.074Z,92967.78
2024-01-04T18:53:49.104Z,92956.69
2024-01-04T18:56:18.285Z,92971.84
2024-01-04T18:58:46.630Z,92978.94
2024-01-04T19:01:15.667Z,92974.94
2024-01-04T19:03:44.360Z,92977.81
2024-01-04T19:06:13.285Z,92991.84
2024-01-04T19:08:42.763Z,92991.84
2024-01-04T19:11:12.044Z,92995.81
2024-01-04T19:13:42.313Z,93002.72
2024-01-04T19:16:11.051Z,93007.84
2024-01-04T19:18:50.078Z,93011.53
2024-01-04T19:21:20.853Z,93007.78
2024-01-04T19:23:49.778Z,93014.75
2024-01-04T19:26:18.724Z,93014.31
2024-01-04T19:28:49.067Z,93031.84
2024-01-04T19:31:22.352Z,93028.72
2024-01-04T19:33:52.210Z,93038.03
2024-01-04T19:36:21.086Z,93040.91
2024-01-04T19:38:49.833Z,93038.78
2024-01-04T19:41:20.775Z,93042.47
2024-01-04T19:43:49.558Z,93034.50
2024-01-04T19:46:19.448Z,93034.97
2024-01-04T19:48:48.304Z,93040.59
2024-01-04T19:51:17.251Z,93036.34
2024-01-04T19:53:45.950Z,93049.44
2024-01-04T19:56:14.745Z,93049.56
2024-01-04T19:58:44.714Z,93046.09
2024-01-04T20:01:13.498Z,93050.88
2024-01-04T20:03:43.657Z,93056.97
2024-01-04T20:06:12.461Z,93048.84
2024-01-04T20:08:41.138Z,93052.13
2024-01-04T20:11:11.178Z,93048.00
2024-01-04T20:13:59.950Z,93050.56
2024-01-04T20:16:28.979Z,93046.84
2024-01-04T20:18:58.210Z,93048.72
2024-01-04T20:21:49.569Z,93045.53
2024-01-04T20:24:19.294Z,93046.34
2024-01-04T20:26:47.841Z,93047.03
2024-01-04T20:29:18.754Z,93053.63
2024-01-04T20:31:48.257Z,93053.94
2024-01-04T20:34:17.197Z,93055.56
2024-01-04T20:36:46.025Z,93061.34
2024-01-04T20:39:16.018Z,93071.31
2024-01-04T20:41:45.210Z,93074.38
2024-01-04T20:44:13.773Z,93084.75
2024-01-04T20:46:43.119Z,93084.69
2024-01-04T20:49:12.474Z,93076.03
2024-01-04T20:51:41.424Z,93079.66
2024-01-04T20:54:11.702Z,93077.41
2024-01-04T20:56:40.963Z,93077.06
2024-01-04T20:59:12.997Z,93081.25
2024-01-04T21:01:41.726Z,93086.63
2024-01-04T21:04:10.648Z,93089.03
2024-01-04T21:06:41.062Z,93101.47
2024-01-04T21:09:12.909Z,93095.38
2024-01-04T21:11:41.666Z,93099.31
2024-01-04T21:14:25.057Z,93106.59
2024-01-04T21:16:53.430Z,93109.78
2024-01-04T21:19:21.709Z,93098.28
2024-01-04T21:21:50.236Z,93103.94
2024-01-04T21:24:19.057Z,93117.56
2024-01-04T21:26:47.828Z,93119.50
2024-01-04T21:29:16.688Z,93113.09
2024-01-04T21:31:44.923Z,93102.97
2024-01-04T21:34:14.067Z,93115.75
2024-01-04T21:36:43.131Z,93115.97
2024-01-04T21:39:13.060Z,93115.63
2024-01-04T21:41:45.015Z,93114.25
2024-01-04T21:44:13.898Z,93115.19
2024-01-04T21:46:43.059Z,93122.34
2024-01-04T21:49:11.690Z,93116.84
2024-01-04T21:51:40.123Z,93122.97
2024-01-04T21:54:08.703Z,93133.78
2024-01-04T21:56:37.378Z,93134.34
2024-01-04T21:59:26.228Z,93140.69
2024-01-04T22:01:58.089Z,93140.59
2024-01-04T22:04:26.776Z,93144.47
2024-01-04T22:06:55.321Z,93141.28
2024-01-04T22:09:23.538Z,93144.59
2024-01-04T22:11:51.601Z,93138.16
2024-01-04T22:14:19.573Z,93140.81
2024-01-04T22:16:47.498Z,93136.22
2024-01-04T22:19:15.932Z,93138.38
2024-01-04T22:21:44.020Z,93146.81
2024-01-04T22:24:11.943Z,93137.41
2024-01-04T22:26:41.001Z,93149.41
2024-01-04T22:29:11.910Z,93150.88
2024-01-04T22:31:39.846Z,93152.09
2024-01-04T22:34:08.462Z,93157.75
2024-01-04T22:36:38.989Z,93149.56
2024-01-04T22:39:07.014Z,93149.16
2024-01-04T22:41:35.121Z,93161.44
2024-01-04T22:44:03.020Z,93168.25
2024-01-04T22:46:31.111Z,93158.00
2024-01-04T22:48:59.067Z,93166.41
2024-01-04T22:51:30.474Z,93170.06
2024-01-04T22:53:58.709Z,93169.63
2024-01-04T22:56:26.646Z,93182.53
2024-01-04T22:58:54.624Z,93179.72
2024-01-04T23:01:22.805Z,93185.00
2024-01-04T23:03:51.330Z,93185.41
2024-01-04T23:06:19.370Z,93185.50
2024-01-04T23:08:47.978Z,93195.34
2024-01-04T23:11:15.928Z,93188.72
2024-01-04T23:13:43.828Z,93189.41
2024-01-04T23:16:14.914Z,93194.50
2024-01-04T23:18:43.123Z,93192.13
2024-01-04T23:21:11.265Z,93206.03
2024-01-04T23:23:39.277Z,93206.25
2024-01-04T23:26:07.254Z,93214.06
2024-01-04T23:28:35.645Z,93205.31
2024-01-04T23:31:03.664Z,93196.75
2024-01-04T23:33:37.306Z,93216.84
2024-01-04T23:36:10.950Z,93218.28
2024-01-04T23:38:39.029Z,93204.69
2024-01-04T23:41:07.214Z,93214.63
2024-01-04T23:43:35.212Z,93215.50
2024-01-04T23:46:03.181Z,93214.75
2024-01-04T23:48:31.382Z,93216.75
2024-01-04T23:50:59.845Z,93223.84
2024-01-04T23:53:27.898Z,93220.88
2024-01-04T23:55:55.946Z,93213.19
2024-01-04T23:58:23.785Z,93236.50
